createdAt,value
2018-01-23T00:00:53.475Z,94.09
2018-01-23T00:03:21.743Z,93.78
2018-01-23T00:05:50.033Z,93.90
2018-01-23T00:08:18.718Z,93.71
2018-01-23T00:10:46.986Z,94.04
2018-01-23T00:13:15.274Z,94.11
2018-01-23T00:15:43.548Z,93.93
2018-01-23T00:18:11.814Z,94.24
2018-01-23T00:20:40.083Z,94.16
2018-01-23T00:23:08.360Z,94.15
2018-01-23T00:25:37.072Z,94.01
2018-01-23T00:28:05.324Z,93.87
2018-01-23T00:30:33.611Z,93.62
2018-01-23T00:33:01.886Z,93.78
2018-01-23T00:35:30.189Z,93.85
2018-01-23T00:37:58.465Z,93.87
2018-01-23T00:40:26.736Z,93.93
2018-01-23T00:42:55.772Z,94.14
2018-01-23T00:45:24.037Z,94.12
2018-01-23T00:47:52.605Z,94.41
2018-01-23T00:50:20.889Z,94.42
2018-01-23T00:52:49.162Z,94.02
2018-01-23T00:55:17.449Z,94.14
2018-01-23T00:57:45.701Z,94.31
2018-01-23T01:00:14.011Z,94.04
2018-01-23T01:02:42.297Z,93.76
2018-01-23T01:05:10.574Z,93.91
2018-01-23T01:07:38.884Z,94.15
2018-01-23T01:10:07.914Z,94.55
2018-01-23T01:12:36.192Z,94.49
2018-01-23T01:15:04.482Z,94.41
2018-01-23T01:17:32.740Z,94.34
2018-01-23T01:20:01.021Z,94.16
2018-01-23T01:22:29.289Z,94.09
2018-01-23T01:24:57.603Z,93.86
2018-01-23T01:27:25.882Z,93.95
2018-01-23T01:29:54.152Z,94.00
2018-01-23T01:32:22.418Z,94.10
2018-01-23T01:34:50.693Z,93.91
2018-01-23T01:37:18.959Z,94.26
2018-01-23T01:39:47.236Z,94.40
2018-01-23T01:42:15.510Z,94.09
2018-01-23T01:44:43.788Z,93.97
2018-01-23T01:47:12.818Z,94.37
2018-01-23T01:49:41.130Z,94.39
2018-01-23T01:52:10.163Z,94.08
2018-01-23T01:54:38.418Z,93.91
2018-01-23T01:57:07.473Z,94.26
2018-01-23T01:59:35.728Z,94.03
2018-01-23T02:02:04.019Z,93.98
2018-01-23T02:04:32.278Z,93.85
2018-01-23T02:07:00.532Z,93.92
2018-01-23T02:09:28.875Z,93.84
2018-01-23T02:11:57.141Z,93.59
2018-01-23T02:14:25.421Z,94.18
2018-01-23T02:16:53.676Z,93.85
2018-01-23T02:19:21.957Z,93.93
2018-01-23T02:21:50.226Z,94.25
2018-01-23T02:24:18.482Z,94.10
2018-01-23T02:26:46.765Z,94.24
2018-01-23T02:29:15.053Z,94.64
2018-01-23T02:31:43.317Z,94.43
2018-01-23T02:34:11.613Z,93.87
2018-01-23T02:36:39.881Z,94.21
2018-01-23T02:39:08.187Z,94.38
2018-01-23T02:41:36.444Z,94.04
2018-01-23T02:44:04.725Z,94.09
2018-01-23T02:46:33.003Z,94.08
2018-01-23T02:49:01.273Z,94.01
2018-01-23T02:51:29.570Z,93.82
2018-01-23T02:53:57.835Z,94.05
2018-01-23T02:56:26.122Z,94.28
2018-01-23T02:58:54.406Z,94.40
2018-01-23T03:01:22.662Z,94.53
2018-01-23T03:03:50.948Z,94.44
2018-01-23T03:06:19.226Z,94.58
2018-01-23T03:08:47.481Z,94.24
2018-01-23T03:11:15.776Z,94.28
2018-01-23T03:13:44.038Z,94.24
2018-01-23T03:16:12.332Z,94.26
2018-01-23T03:18:40.610Z,94.16
2018-01-23T03:21:08.900Z,93.93
2018-01-23T03:23:37.189Z,94.23
2018-01-23T03:26:05.457Z,94.07
2018-01-23T03:28:33.730Z,94.05
2018-01-23T03:31:02.001Z,94.58
2018-01-23T03:33:30.283Z,94.78
2018-01-23T03:35:58.571Z,94.81
2018-01-23T03:38:26.826Z,94.87
2018-01-23T03:40:55.106Z,95.06
2018-01-23T03:43:23.376Z,95.19
2018-01-23T03:45:51.645Z,94.76
2018-01-23T03:48:19.933Z,94.85
2018-01-23T03:50:48.197Z,94.94
2018-01-23T03:53:16.498Z,94.91
2018-01-23T03:55:44.778Z,94.98
2018-01-23T03:58:13.027Z,95.11
2018-01-23T04:00:41.321Z,94.89
2018-01-23T04:03:09.589Z,94.71
2018-01-23T04:05:37.875Z,94.62
2018-01-23T04:08:06.141Z,94.44
2018-01-23T04:10:34.438Z,94.41
2018-01-23T04:13:02.701Z,94.42
2018-01-23T04:15:30.972Z,94.16
2018-01-23T04:17:59.268Z,94.29
2018-01-23T04:20:27.536Z,94.24
2018-01-23T04:22:55.817Z,94.23
2018-01-23T04:25:24.110Z,94.12
2018-01-23T04:27:52.390Z,94.08
2018-01-23T04:30:20.668Z,94.02
2018-01-23T04:32:48.937Z,93.92
2018-01-23T04:35:17.212Z,93.98
2018-01-23T04:37:45.504Z,93.78
2018-01-23T04:40:13.772Z,93.66
2018-01-23T04:42:42.326Z,93.57
2018-01-23T04:45:11.357Z,93.47
2018-01-23T04:47:39.624Z,93.48
2018-01-23T04:50:07.911Z,93.60
2018-01-23T04:52:36.172Z,93.50
2018-01-23T04:55:04.482Z,93.91
2018-01-23T04:57:32.729Z,93.78
2018-01-23T05:00:01.005Z,93.67
2018-01-23T05:02:29.282Z,93.62
2018-01-23T05:04:57.571Z,93.72
2018-01-23T05:07:25.860Z,93.51
2018-01-23T05:09:54.132Z,93.67
2018-01-23T05:12:22.401Z,93.82
2018-01-23T05:14:50.701Z,93.67
2018-01-23T05:17:18.985Z,93.53
2018-01-23T05:19:47.226Z,93.46
2018-01-23T05:22:15.518Z,93.39
2018-01-23T05:24:43.794Z,93.31
2018-01-23T05:27:12.075Z,93.83
2018-01-23T05:29:40.708Z,93.87
2018-01-23T05:32:08.987Z,93.57
2018-01-23T05:34:37.236Z,93.50
2018-01-23T05:37:07.458Z,93.26
2018-01-23T05:39:35.724Z,93.18
2018-01-23T05:42:04.006Z,93.15
2018-01-23T05:44:32.269Z,93.33
2018-01-23T05:47:00.539Z,93.27
2018-01-23T05:49:29.079Z,93.10
2018-01-23T05:51:57.342Z,93.08
2018-01-23T05:54:25.609Z,93.21
2018-01-23T05:56:53.897Z,93.23
2018-01-23T05:59:22.180Z,93.07
2018-01-23T06:01:51.278Z,93.49
2018-01-23T06:04:20.355Z,93.43
2018-01-23T06:06:48.656Z,93.33
2018-01-23T06:09:16.920Z,93.17
2018-01-23T06:11:45.195Z,93.41
2018-01-23T06:14:13.476Z,93.64
2018-01-23T06:16:41.753Z,93.40
2018-01-23T06:19:10.042Z,93.22
2018-01-23T06:21:38.300Z,93.39
2018-01-23T06:24:06.595Z,93.56
2018-01-23T06:26:35.368Z,93.69
2018-01-23T06:29:03.636Z,93.52
2018-01-23T06:31:31.922Z,93.70
2018-01-23T06:34:00.199Z,93.85
2018-01-23T06:36:28.474Z,94.04
2018-01-23T06:38:56.741Z,93.85
2018-01-23T06:41:25.001Z,93.74
2018-01-23T06:43:53.817Z,93.62
2018-01-23T06:46:22.093Z,93.61
2018-01-23T06:48:50.364Z,93.99
2018-01-23T06:51:18.677Z,94.12
2018-01-23T06:53:46.963Z,94.25
2018-01-23T06:56:15.696Z,94.02
2018-01-23T06:58:43.985Z,93.95
2018-01-23T07:01:12.253Z,94.33
2018-01-23T07:03:40.561Z,94.15
2018-01-23T07:06:08.821Z,93.98
2018-01-23T07:08:37.113Z,94.36
2018-01-23T07:11:05.418Z,94.06
2018-01-23T07:13:33.711Z,93.94
2018-01-23T07:16:02.770Z,93.85
2018-01-23T07:18:31.015Z,94.02
2018-01-23T07:20:59.299Z,93.74
2018-01-23T07:23:27.580Z,94.37
2018-01-23T07:25:55.861Z,94.51
2018-01-23T07:28:24.136Z,94.27
2018-01-23T07:30:52.408Z,94.21
2018-01-23T07:33:20.928Z,94.38
2018-01-23T07:35:49.182Z,94.28
2018-01-23T07:38:17.455Z,94.23
2018-01-23T07:40:45.739Z,94.37
2018-01-23T07:43:14.032Z,94.53
2018-01-23T07:45:42.293Z,94.32
2018-01-23T07:48:10.564Z,94.29
2018-01-23T07:50:38.853Z,94.71
2018-01-23T07:53:07.160Z,94.39
2018-01-23T07:55:35.439Z,94.43
2018-01-23T07:58:03.743Z,94.27
2018-01-23T08:00:32.024Z,94.57
2018-01-23T08:03:00.286Z,94.43
2018-01-23T08:05:28.585Z,94.42
2018-01-23T08:07:56.867Z,94.78
2018-01-23T08:10:25.139Z,94.87
2018-01-23T08:12:53.417Z,94.77
2018-01-23T08:15:21.687Z,94.56
2018-01-23T08:17:49.961Z,94.45
2018-01-23T08:20:18.217Z,94.70
2018-01-23T08:22:47.288Z,94.41
2018-01-23T08:25:15.521Z,94.23
2018-01-23T08:27:43.807Z,94.39
2018-01-23T08:30:12.108Z,94.51
2018-01-23T08:32:40.394Z,94.46
2018-01-23T08:35:08.643Z,94.42
2018-01-23T08:37:36.938Z,94.33
2018-01-23T08:40:05.207Z,94.39
2018-01-23T08:42:33.520Z,94.62
2018-01-23T08:45:01.774Z,94.77
2018-01-23T08:47:30.038Z,94.84
2018-01-23T08:49:58.317Z,94.77
2018-01-23T08:52:26.599Z,94.72
2018-01-23T08:54:54.889Z,94.58
2018-01-23T08:57:23.148Z,94.66
2018-01-23T08:59:51.422Z,94.69
2018-01-23T09:02:19.706Z,94.64
2018-01-23T09:04:47.986Z,94.65
2018-01-23T09:07:16.273Z,94.58
2018-01-23T09:09:44.544Z,94.74
2018-01-23T09:12:12.827Z,94.98
2018-01-23T09:14:41.126Z,95.07
2018-01-23T09:17:09.390Z,94.98
2018-01-23T09:19:38.059Z,94.92
2018-01-23T09:22:06.334Z,94.79
2018-01-23T09:24:34.647Z,94.70
2018-01-23T09:27:02.906Z,94.77
2018-01-23T09:29:31.172Z,94.90
2018-01-23T09:31:59.457Z,94.91
2018-01-23T09:34:27.706Z,94.66
2018-01-23T09:36:56.010Z,94.32
2018-01-23T09:39:24.296Z,94.15
2018-01-23T09:41:52.544Z,94.18
2018-01-23T09:44:20.842Z,93.96
2018-01-23T09:46:49.110Z,93.80
2018-01-23T09:49:17.352Z,93.44
2018-01-23T09:51:46.418Z,93.45
2018-01-23T09:54:14.710Z,93.33
2018-01-23T09:56:43.798Z,93.08
2018-01-23T09:59:12.065Z,92.70
2018-01-23T10:01:40.341Z,92.15
2018-01-23T10:04:08.620Z,91.91
2018-01-23T10:06:36.984Z,91.80
2018-01-23T10:09:05.251Z,91.42
2018-01-23T10:11:33.520Z,91.23
2018-01-23T10:14:01.787Z,91.23
2018-01-23T10:16:30.050Z,91.03
2018-01-23T10:18:58.315Z,90.74
2018-01-23T10:21:26.608Z,91.09
2018-01-23T10:23:55.648Z,90.78
2018-01-23T10:26:23.922Z,90.72
2018-01-23T10:28:52.226Z,90.54
2018-01-23T10:31:20.494Z,90.44
2018-01-23T10:33:48.794Z,90.12
2018-01-23T10:36:17.090Z,89.83
2018-01-23T10:38:45.334Z,89.72
2018-01-23T10:41:13.619Z,90.27
2018-01-23T10:43:41.910Z,89.91
2018-01-23T10:46:10.505Z,90.07
2018-01-23T10:48:38.770Z,89.55
2018-01-23T10:51:07.032Z,89.57
2018-01-23T10:53:35.317Z,89.61
2018-01-23T10:56:03.590Z,89.48
2018-01-23T10:58:31.877Z,90.27
2018-01-23T11:01:05.899Z,89.95
2018-01-23T11:03:34.976Z,89.12
2018-01-23T11:06:03.239Z,89.63
2018-01-23T11:08:31.519Z,89.64
2018-01-23T11:10:59.800Z,89.51
2018-01-23T11:13:28.067Z,89.43
2018-01-23T11:15:56.873Z,89.58
2018-01-23T11:18:25.130Z,89.52
2018-01-23T11:20:53.394Z,89.92
2018-01-23T11:23:21.717Z,89.07
2018-01-23T11:25:49.955Z,88.92
2018-01-23T11:28:18.233Z,89.00
2018-01-23T11:30:46.495Z,89.24
2018-01-23T11:33:14.743Z,89.82
2018-01-23T11:35:43.895Z,89.83
2018-01-23T11:38:12.159Z,89.91
2018-01-23T11:40:40.446Z,89.43
2018-01-23T11:43:08.727Z,89.12
2018-01-23T11:45:36.976Z,88.97
2018-01-23T11:48:05.242Z,88.41
2018-01-23T11:50:33.510Z,88.38
2018-01-23T11:53:02.542Z,88.34
2018-01-23T11:55:30.820Z,88.42
2018-01-23T11:57:59.103Z,88.30
2018-01-23T12:00:27.398Z,88.50
2018-01-23T12:02:55.669Z,88.40
2018-01-23T12:05:23.933Z,88.39
2018-01-23T12:07:52.205Z,88.70
2018-01-23T12:10:20.448Z,88.23
2018-01-23T12:12:48.757Z,88.21
2018-01-23T12:15:17.025Z,88.02
2018-01-23T12:17:45.307Z,88.21
2018-01-23T12:20:14.013Z,88.15
2018-01-23T12:22:42.357Z,88.22
2018-01-23T12:25:10.654Z,88.31
2018-01-23T12:27:38.918Z,88.77
2018-01-23T12:30:07.200Z,89.25
2018-01-23T12:32:35.470Z,88.63
2018-01-23T12:35:03.720Z,88.53
2018-01-23T12:37:32.767Z,88.91
2018-01-23T12:40:01.036Z,88.65
2018-01-23T12:42:29.338Z,88.84
2018-01-23T12:44:57.611Z,89.37
2018-01-23T12:47:25.859Z,89.33
2018-01-23T12:49:54.162Z,89.72
2018-01-23T12:52:22.423Z,89.35
2018-01-23T12:54:50.684Z,89.08
2018-01-23T12:57:18.976Z,89.83
2018-01-23T12:59:47.228Z,89.56
2018-01-23T13:02:16.275Z,89.54
2018-01-23T13:04:44.578Z,90.02
2018-01-23T13:07:12.855Z,89.95
2018-01-23T13:09:41.104Z,89.50
2018-01-23T13:12:09.414Z,89.24
2018-01-23T13:14:37.667Z,88.73
2018-01-23T13:17:05.957Z,88.66
2018-01-23T13:19:34.208Z,88.56
2018-01-23T13:22:02.495Z,88.65
2018-01-23T13:24:30.763Z,88.38
2018-01-23T13:26:59.042Z,88.34
2018-01-23T13:29:27.318Z,88.37
2018-01-23T13:31:56.136Z,88.75
2018-01-23T13:34:24.389Z,88.47
2018-01-23T13:36:52.669Z,88.40
2018-01-23T13:39:20.949Z,88.13
2018-01-23T13:41:49.223Z,88.37
2018-01-23T13:44:17.473Z,88.33
2018-01-23T13:46:45.753Z,88.84
2018-01-23T13:49:14.030Z,88.16
2018-01-23T13:51:42.322Z,87.76
2018-01-23T13:54:10.625Z,86.74
2018-01-23T13:56:38.945Z,86.91
2018-01-23T13:59:07.192Z,86.67
2018-01-23T14:01:35.469Z,86.06
2018-01-23T14:04:03.738Z,86.36
2018-01-23T14:06:32.014Z,86.41
2018-01-23T14:09:00.287Z,85.72
2018-01-23T14:11:28.549Z,85.64
2018-01-23T14:13:56.854Z,85.89
2018-01-23T14:16:25.120Z,85.58
2018-01-23T14:18:53.404Z,85.15
2018-01-23T14:21:21.691Z,86.24
2018-01-23T14:23:49.942Z,85.92
2018-01-23T14:26:18.225Z,85.57
2018-01-23T14:28:46.520Z,85.38
2018-01-23T14:31:14.804Z,84.93
2018-01-23T14:33:43.087Z,84.14
2018-01-23T14:36:11.332Z,84.37
2018-01-23T14:38:39.617Z,84.72
2018-01-23T14:41:07.902Z,84.84
2018-01-23T14:43:36.202Z,84.66
2018-01-23T14:46:04.459Z,84.61
2018-01-23T14:48:32.767Z,83.82
2018-01-23T14:51:01.034Z,82.38
2018-01-23T14:53:29.309Z,82.98
2018-01-23T14:55:57.593Z,83.68
2018-01-23T14:58:25.838Z,83.47
2018-01-23T15:00:54.110Z,83.52
2018-01-23T15:03:22.425Z,83.77
2018-01-23T15:05:50.694Z,83.78
2018-01-23T15:08:19.003Z,83.88
2018-01-23T15:10:48.027Z,83.57
2018-01-23T15:13:16.306Z,83.69
2018-01-23T15:15:44.588Z,83.40
2018-01-23T15:18:12.864Z,83.55
2018-01-23T15:20:41.156Z,83.66
2018-01-23T15:23:09.446Z,83.23
2018-01-23T15:25:37.696Z,83.88
2018-01-23T15:28:05.984Z,84.76
2018-01-23T15:30:34.263Z,84.57
2018-01-23T15:33:02.522Z,84.56
2018-01-23T15:35:30.771Z,84.59
2018-01-23T15:37:59.044Z,84.69
2018-01-23T15:40:27.325Z,84.55
2018-01-23T15:42:56.355Z,84.75
2018-01-23T15:45:24.626Z,85.52
2018-01-23T15:47:52.932Z,85.15
2018-01-23T15:50:21.204Z,85.05
2018-01-23T15:52:49.476Z,84.89
2018-01-23T15:55:17.737Z,84.97
2018-01-23T15:57:46.009Z,84.58
2018-01-23T16:00:14.281Z,85.21
2018-01-23T16:02:42.534Z,84.59
2018-01-23T16:05:10.813Z,84.69
2018-01-23T16:07:39.832Z,84.78
2018-01-23T16:10:08.110Z,85.01
2018-01-23T16:12:36.397Z,84.79
2018-01-23T16:15:04.652Z,84.62
2018-01-23T16:17:32.926Z,85.00
2018-01-23T16:20:01.193Z,85.61
2018-01-23T16:22:29.497Z,86.21
2018-01-23T16:24:57.796Z,85.72
2018-01-23T16:27:26.061Z,85.32
2018-01-23T16:29:54.363Z,85.52
2018-01-23T16:32:22.649Z,85.54
2018-01-23T16:34:50.886Z,86.27
2018-01-23T16:37:19.183Z,85.88
2018-01-23T16:39:47.452Z,84.93
2018-01-23T16:42:15.739Z,85.29
2018-01-23T16:44:44.000Z,84.86
2018-01-23T16:47:12.295Z,84.43
2018-01-23T16:49:40.598Z,83.97
2018-01-23T16:52:08.846Z,84.08
2018-01-23T16:54:37.433Z,83.66
2018-01-23T16:57:05.714Z,84.00
2018-01-23T16:59:33.979Z,83.40
2018-01-23T17:02:02.298Z,84.23
2018-01-23T17:04:30.558Z,84.60
2018-01-23T17:06:58.826Z,84.75
2018-01-23T17:09:27.108Z,84.08
2018-01-23T17:11:55.364Z,82.94
2018-01-23T17:14:23.674Z,82.55
2018-01-23T17:16:51.943Z,82.45
2018-01-23T17:19:20.647Z,82.77
2018-01-23T17:21:48.921Z,83.04
2018-01-23T17:24:17.197Z,83.35
2018-01-23T17:26:45.483Z,83.17
2018-01-23T17:29:13.728Z,83.52
2018-01-23T17:31:42.057Z,83.58
2018-01-23T17:34:10.339Z,83.31
2018-01-23T17:36:39.380Z,82.95
2018-01-23T17:39:08.434Z,82.68
2018-01-23T17:41:36.695Z,83.31
2018-01-23T17:44:05.024Z,83.36
2018-01-23T17:46:33.283Z,82.75
2018-01-23T17:49:01.563Z,82.97
2018-01-23T17:51:29.873Z,82.93
2018-01-23T17:53:58.143Z,83.15
2018-01-23T17:56:26.438Z,83.99
2018-01-23T17:58:54.710Z,83.81
2018-01-23T18:01:22.972Z,84.07
2018-01-23T18:03:51.265Z,83.88
2018-01-23T18:06:19.536Z,83.98
2018-01-23T18:08:47.804Z,84.16
2018-01-23T18:11:16.074Z,84.16
2018-01-23T18:13:44.353Z,83.92
2018-01-23T18:16:12.661Z,83.83
2018-01-23T18:18:40.920Z,83.60
2018-01-23T18:21:09.238Z,83.60
2018-01-23T18:23:37.510Z,83.33
2018-01-23T18:26:05.791Z,83.65
2018-01-23T18:28:34.988Z,83.74
2018-01-23T18:31:03.280Z,83.52
2018-01-23T18:33:31.635Z,83.68
2018-01-23T18:35:59.891Z,83.53
2018-01-23T18:38:30.428Z,82.83
2018-01-23T18:40:58.734Z,83.33
2018-01-23T18:43:27.023Z,83.02
2018-01-23T18:45:58.867Z,83.00
2018-01-23T18:48:27.125Z,83.37
2018-01-23T18:50:55.397Z,83.85
2018-01-23T18:53:23.688Z,84.00
2018-01-23T18:55:51.962Z,83.54
2018-01-23T18:58:20.203Z,83.26
2018-01-23T19:00:48.481Z,83.66
2018-01-23T19:03:17.198Z,83.53
2018-01-23T19:05:45.484Z,83.63
2018-01-23T19:08:13.757Z,83.45
2018-01-23T19:10:42.019Z,83.30
2018-01-23T19:13:10.311Z,83.47
2018-01-23T19:15:38.584Z,84.57
2018-01-23T19:18:06.895Z,84.68
2018-01-23T19:20:35.258Z,84.64
2018-01-23T19:23:03.566Z,84.55
2018-01-23T19:25:31.846Z,84.61
2018-01-23T19:28:00.892Z,84.61
2018-01-23T19:30:29.178Z,85.08
2018-01-23T19:32:57.452Z,85.62
2018-01-23T19:35:25.720Z,85.78
2018-01-23T19:37:53.999Z,86.49
2018-01-23T19:40:22.262Z,87.02
2018-01-23T19:42:50.600Z,87.41
2018-01-23T19:45:18.876Z,87.41
2018-01-23T19:47:47.430Z,87.70
2018-01-23T19:50:15.741Z,87.96
2018-01-23T19:52:44.019Z,88.22
2018-01-23T19:55:12.314Z,88.40
2018-01-23T19:57:41.362Z,88.66
2018-01-23T20:00:09.616Z,89.10
2018-01-23T20:02:37.891Z,89.30
2018-01-23T20:05:06.202Z,89.92
2018-01-23T20:07:35.434Z,89.78
2018-01-23T20:10:04.484Z,89.89
2018-01-23T20:12:32.743Z,90.52
2018-01-23T20:15:01.451Z,90.37
2018-01-23T20:17:29.729Z,90.42
2018-01-23T20:19:58.028Z,90.52
2018-01-23T20:22:26.298Z,90.54
2018-01-23T20:24:54.558Z,90.36
2018-01-23T20:48:27.265Z,91.49
2018-01-23T21:09:02.842Z,91.47
2018-01-23T21:29:37.347Z,91.33
2018-01-23T21:50:10.932Z,91.56
2018-01-23T22:10:43.440Z,91.72
2018-01-23T22:31:14.715Z,92.34
2018-01-23T22:51:55.239Z,92.87
2018-01-23T23:12:28.447Z,93.75
2018-01-23T23:33:02.373Z,94.67
2018-01-23T23:53:36.887Z,94.44
